NEWFOUND LAKE DAM: From 11/05/2018 11:00 to 11/19/2018 21:00

Date STAGE [FT] FLOW [CFS] LAKE ELEVATION [FT] PRECIPITATION INCREMENT [IN] AIR TEMPERATURE [DEGF]
11/19/2018 14:00 6.13 -- 585.76 0.01 32.6
11/19/2018 13:00 6.12 402.5 585.78 0.00 31.4
11/19/2018 12:00 6.07 386.3 585.77 0.00 30.9
11/19/2018 11:00 6.05 379.8 585.79 0.00 30.0
11/19/2018 10:00 6.11 399.2 585.78 0.00 29.3
11/19/2018 09:00 6.17 419.0 585.79 0.00 28.9
11/19/2018 08:00 6.20 429.0 585.79 0.00 28.6
11/19/2018 07:00 6.12 402.5 585.82 0.00 28.3
11/19/2018 06:00 6.14 409.1 585.82 0.00 28.0
11/19/2018 05:00 6.10 396.0 585.82 0.00 27.8
11/19/2018 04:00 6.09 392.7 585.82 0.00 27.8
11/19/2018 03:00 6.15 412.4 585.83 0.00 27.6
11/19/2018 02:00 6.14 409.1 585.84 0.00 27.7
11/19/2018 01:00 6.19 425.6 585.85 0.00 27.7
11/19/2018 00:00 6.20 429.0 585.85 0.00 28.0
11/18/2018 23:00 6.18 422.3 585.86 0.00 27.7
11/18/2018 22:00 6.15 412.4 585.88 0.00 27.6
11/18/2018 21:00 6.18 422.3 585.89 0.00 28.2
11/18/2018 20:00 6.12 402.5 585.87 0.00 29.1
11/18/2018 19:00 6.13 405.8 585.89 0.00 29.1
11/18/2018 18:00 6.14 409.1 585.91 0.00 30.1
11/18/2018 17:00 6.10 396.0 585.91 0.00 32.1
11/18/2018 16:00 6.12 402.5 585.89 0.00 32.9
11/18/2018 15:00 6.10 396.0 585.91 0.00 32.6
11/18/2018 14:00 6.15 412.4 585.92 0.00 31.4
11/18/2018 13:00 6.20 429.0 585.92 0.00 29.8
11/18/2018 12:00 6.12 402.5 585.94 0.00 29.0
11/18/2018 11:00 6.13 405.8 585.95 0.00 27.5
11/18/2018 10:00 6.15 412.4 585.95 0.00 25.8
11/18/2018 09:00 6.16 415.7 585.99 0.00 25.3
11/18/2018 08:00 6.13 405.8 585.96 0.00 25.5
11/18/2018 07:00 6.23 439.1 585.98 0.00 26.8
11/18/2018 06:00 6.17 419.0 585.99 0.00 28.0
11/18/2018 05:00 6.15 412.4 586.00 0.00 29.2
11/18/2018 04:00 6.16 415.7 586.01 0.00 30.7
11/18/2018 03:00 6.22 435.7 586.05 0.00 32.4
11/18/2018 02:00 6.15 412.4 586.02 0.00 33.7
11/18/2018 01:00 6.12 402.5 586.04 0.00 34.4
11/18/2018 00:00 6.22 435.7 586.05 0.00 34.9
11/17/2018 23:00 6.19 425.6 586.04 0.00 36.6
11/17/2018 22:00 6.12 402.5 586.02 0.00 35.9
11/17/2018 21:00 6.14 409.1 586.06 0.00 38.1
11/17/2018 20:00 6.16 415.7 586.06 0.00 38.3
11/17/2018 19:00 6.23 439.1 586.07 0.00 38.3
11/17/2018 18:00 6.22 435.7 586.08 0.00 39.7
11/17/2018 17:00 6.21 432.3 586.07 0.01 40.9
11/17/2018 16:00 6.23 439.1 586.08 0.04 42.4
11/17/2018 15:00 6.21 432.3 586.10 0.07 42.5
11/17/2018 14:00 6.24 442.5 586.13 0.10 42.4
11/17/2018 13:00 6.21 432.3 586.12 0.12 41.7
11/17/2018 12:00 6.16 415.7 586.13 0.05 42.0
11/17/2018 11:00 6.12 402.5 586.12 0.00 40.1
11/17/2018 10:00 6.18 422.3 586.11 0.00 36.9
11/17/2018 09:00 6.28 456.1 586.13 0.00 34.8
11/17/2018 08:00 6.21 432.3 586.14 0.00 36.8
11/17/2018 07:00 6.21 432.3 586.13 0.00 35.3
11/17/2018 06:00 6.24 442.5 586.15 0.00 34.5
11/17/2018 05:00 6.19 425.6 586.15 0.00 33.4
11/17/2018 04:00 6.23 439.1 586.15 0.00 34.0
11/17/2018 03:00 6.23 439.1 586.18 0.00 36.7
11/17/2018 02:00 6.24 442.5 586.16 0.00 34.7
11/17/2018 01:00 6.25 445.9 586.18 0.00 34.1
11/17/2018 00:00 6.22 435.7 586.19 0.00 33.7
11/16/2018 23:00 6.18 422.3 586.18 0.00 31.0
11/16/2018 22:00 6.17 419.0 586.18 0.00 29.5
11/16/2018 21:00 6.21 432.3 586.21 0.00 29.8
11/16/2018 20:00 6.23 439.1 586.21 0.00 30.2
11/16/2018 19:00 6.18 422.3 586.18 0.00 31.2
11/16/2018 18:00 6.22 435.7 586.21 0.00 31.5
11/16/2018 17:00 6.25 445.9 586.25 0.00 31.2
11/16/2018 16:00 6.26 449.3 586.23 0.01 32.5
11/16/2018 15:00 6.27 452.7 586.24 0.00 32.0
11/16/2018 14:00 6.23 439.1 586.25 0.00 31.1
11/16/2018 13:00 6.29 459.5 586.26 0.00 29.3
11/16/2018 12:00 6.31 466.5 586.26 0.00 30.3
11/16/2018 11:00 6.26 449.3 586.26 0.00 29.3
11/16/2018 10:00 6.32 470.1 586.29 0.00 28.1
11/16/2018 09:00 6.34 477.3 586.24 0.00 27.6
11/16/2018 08:00 6.33 473.7 586.28 0.00 26.7
11/16/2018 07:00 6.21 432.3 586.30 0.00 25.6
11/16/2018 06:00 6.21 432.3 586.30 0.00 24.4
11/16/2018 05:00 6.29 459.5 586.27 0.00 23.1
11/16/2018 04:00 6.18 422.3 586.32 0.00 23.1
11/16/2018 03:00 6.31 466.5 586.26 0.00 22.9
11/16/2018 02:00 6.30 463.0 586.30 0.00 23.0
11/16/2018 01:00 6.27 452.7 586.33 0.00 22.9
11/16/2018 00:00 6.24 442.5 586.28 0.00 22.8
11/15/2018 23:00 6.30 463.0 586.30 0.00 25.9
11/15/2018 22:00 6.21 432.3 586.30 0.00 25.7
11/15/2018 21:00 6.31 466.5 586.29 0.00 25.3
11/15/2018 20:00 6.27 452.7 586.29 0.00 25.3
11/15/2018 19:00 6.29 459.5 586.31 0.00 25.4
11/15/2018 18:00 6.30 463.0 586.34 0.00 25.8
11/15/2018 17:00 6.31 466.5 586.32 0.00 26.4
11/15/2018 16:00 6.35 480.8 586.34 0.00 26.5
11/15/2018 15:00 6.31 466.5 586.33 0.00 27.0
11/15/2018 14:00 6.33 473.7 586.36 0.00 26.1
11/15/2018 13:00 6.23 439.1 586.35 0.00 23.9
11/15/2018 12:00 6.27 452.7 586.37 0.00 22.0
11/15/2018 11:00 6.38 491.7 586.38 0.00 21.0
11/15/2018 10:00 6.36 484.5 586.39 0.00 19.3
11/15/2018 09:00 6.35 480.8 586.41 0.00 17.6
11/15/2018 08:00 6.32 470.1 586.41 0.00 16.7
11/15/2018 07:00 6.30 463.0 586.40 0.00 16.5
11/15/2018 06:00 6.38 491.7 586.39 0.00 14.4
11/15/2018 05:00 6.33 473.7 586.39 0.00 16.2
11/15/2018 04:00 6.35 480.8 586.44 0.00 16.1
11/15/2018 03:00 6.33 473.7 586.41 0.00 15.8
11/15/2018 02:00 6.32 470.1 586.41 0.00 15.7
11/15/2018 01:00 6.36 484.5 586.43 0.00 15.7
11/15/2018 00:00 6.35 480.8 586.47 0.00 15.4
11/14/2018 23:00 6.32 470.1 586.45 0.00 16.2
11/14/2018 22:00 6.26 449.3 586.46 0.00 16.8
11/14/2018 21:00 6.33 473.7 586.45 0.00 16.5
11/14/2018 20:00 6.32 470.1 586.44 0.00 17.3
11/14/2018 19:00 6.28 456.1 586.44 0.00 18.3
11/14/2018 18:00 6.36 484.5 586.46 0.00 18.9
11/14/2018 17:00 6.35 480.8 586.46 0.00 20.3
11/14/2018 16:00 6.41 502.6 586.50 0.00 21.8
11/14/2018 15:00 6.33 473.7 586.50 0.00 23.2
11/14/2018 14:00 6.38 491.7 586.52 0.00 24.7
11/14/2018 13:00 6.36 484.5 586.45 0.00 23.9
11/14/2018 12:00 6.33 473.7 586.43 0.00 23.7
11/14/2018 11:00 6.35 480.8 586.49 0.00 22.6
11/14/2018 10:00 6.41 502.6 586.50 0.00 21.7
11/14/2018 09:00 6.37 488.1 586.49 0.00 20.2
11/14/2018 08:00 6.36 484.5 586.48 0.00 20.8
11/14/2018 07:00 6.39 495.3 586.47 0.00 20.7
11/14/2018 06:00 6.33 473.7 586.47 0.00 21.2
11/14/2018 05:00 6.40 499.0 586.50 0.00 22.8
11/14/2018 04:00 6.33 473.7 586.52 0.00 24.3
11/14/2018 03:00 6.36 484.5 586.47 0.00 25.3
11/14/2018 02:00 6.35 480.8 586.48 0.00 26.5
11/14/2018 01:00 6.43 509.7 586.47 0.00 28.1
11/14/2018 00:00 6.34 477.3 586.48 0.00 31.4
11/13/2018 23:00 6.36 484.5 586.45 0.01 33.3
11/13/2018 22:00 6.38 491.7 586.47 0.01 36.1
11/13/2018 21:00 6.34 477.3 586.43 0.02 36.7
11/13/2018 20:00 6.38 491.7 586.46 0.02 37.6
11/13/2018 19:00 6.30 463.0 586.47 0.04 37.0
11/13/2018 18:00 6.40 499.0 586.45 0.06 37.0
11/13/2018 17:00 6.37 488.1 586.41 0.07 37.9
11/13/2018 16:00 6.27 452.7 586.41 0.08 37.4
11/13/2018 15:00 6.31 466.5 586.40 0.08 36.3
11/13/2018 14:00 6.28 456.1 586.40 0.14 35.9
11/13/2018 13:00 6.31 466.5 586.35 0.16 35.5
11/13/2018 12:00 6.31 466.5 586.35 0.16 35.1
11/13/2018 11:00 6.25 445.9 586.39 0.16 34.4
11/13/2018 10:00 6.34 477.3 586.37 0.13 32.7
11/13/2018 09:00 6.33 473.7 586.34 0.00 32.2
11/13/2018 08:00 6.31 466.5 586.31 0.00 32.2
11/13/2018 07:00 6.28 456.1 586.34 0.00 32.2
11/13/2018 06:00 6.33 473.7 586.35 0.00 31.5
11/13/2018 05:00 6.27 452.7 586.34 0.00 31.5
11/13/2018 04:00 6.28 456.1 586.28 0.00 32.3
11/13/2018 03:00 6.32 470.1 586.32 0.00 32.8
11/13/2018 02:00 6.27 452.7 586.36 0.00 32.4
11/13/2018 01:00 6.30 463.0 586.36 0.00 32.9
11/13/2018 00:00 6.27 452.7 586.35 0.00 32.4
11/12/2018 23:00 6.30 463.0 586.35 0.00 31.9
11/12/2018 22:00 6.30 463.0 586.37 0.00 31.3
11/12/2018 21:00 6.31 466.5 586.38 0.00 30.9
11/12/2018 20:00 6.32 470.1 586.39 0.00 30.9
11/12/2018 19:00 6.33 473.7 586.39 0.00 31.7
11/12/2018 18:00 6.31 466.5 586.41 0.00 33.8
11/12/2018 17:00 6.38 491.7 586.40 0.00 38.2
11/12/2018 16:00 6.33 473.7 586.42 0.00 44.2
11/12/2018 15:00 6.30 463.0 586.43 0.00 44.0
11/12/2018 14:00 6.37 488.1 586.44 0.00 43.2
11/12/2018 13:00 6.34 477.3 586.45 0.00 41.7
11/12/2018 12:00 6.36 484.5 586.45 0.00 38.2
11/12/2018 11:00 6.39 495.3 586.45 0.00 33.7
11/12/2018 10:00 6.39 495.3 586.45 0.00 28.4
11/12/2018 09:00 6.34 477.3 586.46 0.00 25.1
11/12/2018 08:00 6.32 470.1 586.45 0.00 24.4
11/12/2018 07:00 6.37 488.1 586.46 0.00 23.4
11/12/2018 06:00 6.37 488.1 586.48 0.00 22.6
11/12/2018 05:00 6.32 470.1 586.49 0.00 23.4
11/12/2018 04:00 6.43 509.7 586.49 0.00 23.5
11/12/2018 03:00 6.39 495.3 586.50 0.00 23.9
11/12/2018 02:00 6.28 456.1 586.49 0.00 24.6
11/12/2018 01:00 6.44 513.3 586.52 0.00 25.0
11/12/2018 00:00 6.34 477.3 586.52 0.00 25.7
11/11/2018 23:00 6.31 466.5 586.53 0.00 26.7
11/11/2018 22:00 6.28 456.1 586.51 0.00 27.6
11/11/2018 21:00 6.32 470.1 586.54 0.00 28.4
11/11/2018 20:00 6.29 459.5 586.56 0.00 31.0
11/11/2018 19:00 6.40 499.0 586.56 0.00 29.2
11/11/2018 18:00 6.29 459.5 586.54 0.00 30.2
11/11/2018 17:00 6.37 488.1 586.56 0.00 34.5
11/11/2018 16:00 6.36 484.5 586.57 0.00 36.1
11/11/2018 15:00 6.34 477.3 586.59 0.00 36.3
11/11/2018 14:00 6.36 484.5 586.58 0.00 35.0
11/11/2018 13:00 6.41 502.6 586.61 0.00 34.6
11/11/2018 12:00 6.34 477.3 586.62 0.00 32.7
11/11/2018 11:00 6.46 520.5 586.62 0.00 30.6
11/11/2018 10:00 6.32 470.1 586.57 0.00 29.3
11/11/2018 09:00 6.42 506.1 586.65 0.00 29.0
11/11/2018 08:00 6.44 513.3 586.61 0.00 28.1
11/11/2018 07:00 6.38 491.7 586.61 0.00 28.4
11/11/2018 06:00 6.38 491.7 586.64 0.00 29.1
11/11/2018 05:00 6.41 502.6 586.58 0.00 29.5
11/11/2018 04:00 6.45 516.9 586.67 0.00 30.4
11/11/2018 03:00 6.42 506.1 586.63 0.00 31.3
11/11/2018 02:00 6.40 499.0 586.64 0.00 32.0
11/11/2018 01:00 6.41 502.6 586.67 0.00 33.4
11/11/2018 00:00 6.43 509.7 586.69 0.00 33.3
11/10/2018 23:00 6.39 495.3 586.66 0.00 33.5
11/10/2018 22:00 6.41 502.6 586.57 0.00 33.3
11/10/2018 21:00 6.44 513.3 586.65 0.00 33.3
11/10/2018 20:00 6.45 516.9 586.74 0.00 33.6
11/10/2018 19:00 6.46 520.5 586.64 0.00 33.2
11/10/2018 18:00 6.35 480.8 586.65 0.00 34.1
11/10/2018 17:00 6.32 470.1 586.65 0.00 36.1
11/10/2018 16:00 6.41 502.6 586.67 0.00 37.6
11/10/2018 15:00 6.38 491.7 586.61 0.00 38.7
11/10/2018 14:00 6.35 480.8 586.65 0.00 38.2
11/10/2018 13:00 6.37 488.1 586.66 0.00 41.0
11/10/2018 12:00 6.45 516.9 586.64 0.00 39.6
11/10/2018 11:00 6.46 520.5 586.65 0.00 38.9
11/10/2018 10:00 6.42 506.1 586.66 0.01 38.0
11/10/2018 09:00 6.42 506.1 586.63 0.01 36.9
11/10/2018 08:00 6.48 527.7 586.63 0.02 36.4
11/10/2018 07:00 6.38 491.7 586.64 0.01 36.1
11/10/2018 06:00 6.47 524.1 586.67 0.00 36.1
11/10/2018 05:00 6.41 502.6 586.63 0.01 35.9
11/10/2018 04:00 6.45 516.9 586.62 0.01 35.8
11/10/2018 03:00 6.43 509.7 586.67 0.03 35.3
11/10/2018 02:00 6.45 516.9 586.67 0.06 36.6
11/10/2018 01:00 6.45 516.9 586.62 0.07 35.7
11/10/2018 00:00 6.44 513.3 586.63 0.04 34.7
11/09/2018 23:00 6.42 506.1 586.62 0.07 34.8
11/09/2018 22:00 6.51 538.7 586.66 0.17 35.5
11/09/2018 21:00 6.38 491.7 586.61 0.08 36.5
11/09/2018 20:00 6.37 488.1 586.57 0.13 37.6
11/09/2018 19:00 6.40 499.0 586.58 0.02 38.3
11/09/2018 18:00 6.40 499.0 586.66 0.00 40.9
11/09/2018 17:00 6.43 509.7 586.65 0.00 41.8
11/09/2018 16:00 6.40 499.0 586.62 0.00 42.2
11/09/2018 15:00 6.42 506.1 586.62 0.00 42.1
11/09/2018 14:00 6.41 502.6 586.66 0.00 42.6
11/09/2018 13:00 6.46 520.5 586.64 0.00 42.5
11/09/2018 12:00 6.49 531.4 586.67 0.00 40.8
11/09/2018 11:00 6.41 502.6 586.68 0.00 39.3
11/09/2018 10:00 6.45 516.9 586.69 0.00 34.4
11/09/2018 09:00 6.39 495.3 586.69 0.00 30.3
11/09/2018 08:00 6.36 484.5 586.69 0.00 29.2
11/09/2018 07:00 6.46 520.5 586.71 0.00 29.3
11/09/2018 06:00 6.47 524.1 586.70 0.00 29.4
11/09/2018 05:00 6.52 542.5 586.72 0.00 30.2
11/09/2018 04:00 6.47 524.1 586.75 0.00 30.9
11/09/2018 03:00 6.46 520.5 586.73 0.00 31.8
11/09/2018 02:00 6.52 542.5 586.73 0.00 33.1
11/09/2018 01:00 6.49 531.4 586.76 0.00 34.5
11/09/2018 00:00 6.46 520.5 586.75 0.00 37.0
11/08/2018 23:00 6.56 557.7 586.78 0.00 37.2
11/08/2018 22:00 6.41 502.6 586.78 0.00 41.2
11/08/2018 21:00 6.39 495.3 586.79 0.00 40.2
11/08/2018 20:00 6.48 527.7 586.80 0.00 39.5
11/08/2018 19:00 6.52 542.5 586.80 0.00 41.9
11/08/2018 18:00 6.54 550.1 586.80 0.00 44.1
11/08/2018 17:00 6.46 520.5 586.82 0.00 45.6
11/08/2018 16:00 6.54 550.1 586.83 0.00 47.1
11/08/2018 15:00 6.49 531.4 586.83 0.00 47.4
11/08/2018 14:00 6.44 513.3 586.85 0.00 47.1
11/08/2018 13:00 6.59 569.1 586.85 0.00 48.5
11/08/2018 12:00 6.55 553.9 586.87 0.00 47.5
11/08/2018 11:00 6.53 546.3 586.85 0.00 45.7
11/08/2018 10:00 6.53 546.3 586.87 0.00 44.8
11/08/2018 09:00 6.54 550.1 586.86 0.00 41.2
11/08/2018 08:00 6.53 546.3 586.87 0.00 36.8
11/08/2018 07:00 6.61 576.8 586.88 0.00 40.3
11/08/2018 06:00 6.53 546.3 586.89 0.00 38.5
11/08/2018 05:00 6.53 546.3 586.91 0.00 37.4
11/08/2018 04:00 6.59 569.1 586.87 0.00 37.6
11/08/2018 03:00 6.59 569.1 586.91 0.00 40.2
11/08/2018 02:00 6.61 576.8 586.89 0.00 43.5
11/08/2018 01:00 6.54 550.1 586.95 0.00 46.1
11/08/2018 00:00 6.49 531.4 586.93 0.00 40.5
11/07/2018 23:00 6.56 557.7 586.93 0.00 38.9
11/07/2018 22:00 6.63 584.6 586.93 0.00 38.5
11/07/2018 21:00 6.59 569.1 586.95 0.00 40.0
11/07/2018 20:00 6.52 542.5 586.94 0.00 41.3
11/07/2018 19:00 6.60 573.0 586.93 0.00 43.6
11/07/2018 18:00 6.54 550.1 586.94 0.00 47.1
11/07/2018 17:00 6.57 561.5 586.98 0.00 52.2
11/07/2018 16:00 6.62 580.7 586.95 0.00 55.1
11/07/2018 15:00 6.56 557.7 586.97 0.00 56.1
11/07/2018 14:00 6.58 565.3 586.95 0.00 55.8
11/07/2018 13:00 6.58 565.3 587.04 0.00 55.7
11/07/2018 12:00 6.57 561.5 586.91 0.00 54.2
11/07/2018 11:00 6.67 600.2 587.00 0.00 52.6
11/07/2018 10:00 6.60 573.0 587.01 0.00 49.8
11/07/2018 09:00 6.59 569.1 586.96 0.01 45.1
11/07/2018 08:00 6.67 600.2 586.91 0.00 41.7
11/07/2018 07:00 6.58 565.3 586.97 0.00 41.8
11/07/2018 06:00 6.56 557.7 586.90 0.00 42.9
11/07/2018 05:00 6.59 569.1 586.89 0.00 44.0
11/07/2018 04:00 6.51 538.7 586.97 0.00 43.3
11/07/2018 03:00 6.53 546.3 586.95 0.03 44.9
11/07/2018 02:00 6.61 576.8 586.89 0.01 45.0
11/07/2018 01:00 6.59 569.1 586.96 0.00 45.6
11/07/2018 00:00 6.53 546.3 586.90 0.00 45.7
11/06/2018 23:00 6.60 573.0 586.93 0.00 45.7
11/06/2018 22:00 6.56 557.7 586.90 0.00 45.6
11/06/2018 21:00 6.52 542.5 586.90 0.00 45.5
11/06/2018 20:00 6.50 535.0 586.82 0.00 45.5
11/06/2018 19:00 6.61 576.8 586.86 0.04 45.7
11/06/2018 18:00 6.52 542.5 586.81 0.05 45.7
11/06/2018 17:00 6.48 527.7 586.82 0.02 46.1
11/06/2018 16:00 6.58 565.3 586.83 0.11 46.2
11/06/2018 15:00 6.52 542.5 586.88 0.22 45.9
11/06/2018 14:00 6.56 557.7 586.80 0.07 46.1
11/06/2018 13:00 6.54 550.1 586.80 0.00 46.0
11/06/2018 12:00 6.53 546.3 586.83 0.01 45.6
11/06/2018 11:00 6.38 491.7 586.83 0.00 44.3
11/06/2018 10:00 6.45 516.9 586.82 0.01 42.8
11/06/2018 09:00 6.41 502.6 586.81 0.01 41.7
11/06/2018 08:00 6.43 509.7 586.83 0.00 40.5
11/06/2018 07:00 6.49 531.4 586.82 0.00 40.0
11/06/2018 06:00 6.45 516.9 586.85 0.01 39.7
11/06/2018 05:00 6.51 538.7 586.85 0.00 39.3
11/06/2018 04:00 6.56 557.7 586.85 0.01 39.1
11/06/2018 03:00 6.54 550.1 586.83 0.01 38.9
11/06/2018 02:00 6.53 546.3 586.87 0.07 38.8
11/06/2018 01:00 6.38 491.7 586.87 0.05 38.9
11/06/2018 00:00 6.49 531.4 586.85 0.03 38.5
11/05/2018 23:00 6.42 506.1 586.89 0.02 38.5
11/05/2018 22:00 6.56 557.7 586.89 0.00 38.7
11/05/2018 21:00 6.48 527.7 586.86 0.00 38.6
11/05/2018 20:00 6.54 550.1 586.88 0.00 38.5
11/05/2018 19:00 6.52 542.5 586.93 0.00 38.7
11/05/2018 18:00 6.56 557.7 586.91 0.00 38.3
11/05/2018 17:00 6.47 524.1 586.90 0.00 38.2
11/05/2018 16:00 6.53 546.3 586.93 0.00 38.4
11/05/2018 15:00 -- -- -- -- --
11/05/2018 14:00 -- -- -- -- --
11/05/2018 13:00 -- -- -- -- --
11/05/2018 12:00 -- -- -- -- --
11/05/2018 11:00 -- -- -- -- --